createdAt,value
2022-11-21T07:35:40.005Z,31.73
2022-11-21T07:40:43.772Z,30.00
2022-11-21T07:45:47.678Z,33.40
2022-11-21T07:50:52.735Z,31.67
2022-11-21T08:01:06.251Z,32.67
2022-11-21T08:06:14.426Z,31.23
2022-11-21T08:11:18.128Z,30.58
2022-11-21T08:16:27.899Z,30.38
2022-11-21T08:21:32.982Z,29.73
2022-11-21T08:31:41.013Z,31.52
2022-11-21T08:36:49.000Z,31.17
2022-11-21T08:42:04.708Z,30.77
2022-11-21T08:47:08.790Z,30.35
2022-11-21T08:52:17.477Z,26.85
2022-11-21T08:57:24.218Z,24.98
2022-11-21T09:02:28.068Z,25.23
2022-11-21T09:07:33.269Z,25.20
2022-11-21T09:12:37.182Z,28.13
2022-11-21T09:17:58.386Z,21.65
2022-11-21T09:23:08.179Z,22.38
2022-11-21T09:28:15.216Z,20.83
2022-11-21T09:33:19.005Z,22.40
2022-11-21T09:38:24.547Z,20.30
2022-11-21T09:43:39.907Z,19.02
2022-11-21T09:48:49.697Z,18.05
2022-11-21T09:53:59.824Z,17.70
2022-11-21T09:59:16.882Z,16.45
2022-11-21T10:04:20.763Z,16.05
2022-11-21T10:09:36.864Z,17.48
2022-11-21T10:14:53.582Z,15.10
2022-11-21T10:20:27.401Z,15.82
2022-11-21T10:25:39.551Z,15.73
2022-11-21T10:30:45.903Z,13.93
2022-11-21T10:35:54.570Z,15.18
2022-11-21T10:41:07.152Z,15.95
2022-11-21T10:46:11.027Z,15.90
2022-11-21T10:51:31.305Z,16.10
2022-11-21T10:56:38.311Z,15.18
2022-11-21T11:01:55.080Z,15.57
2022-11-21T11:07:00.586Z,16.40
2022-11-21T11:12:47.011Z,14.75
2022-11-21T11:17:54.334Z,15.05
2022-11-21T11:22:58.076Z,14.18
2022-11-21T11:28:09.274Z,16.52
2022-11-21T11:33:35.708Z,14.90
2022-11-21T11:38:45.192Z,14.73
2022-11-21T11:44:18.174Z,14.10
2022-11-21T11:49:30.691Z,15.63
2022-11-21T11:54:51.462Z,13.40
2022-11-21T12:00:06.110Z,13.50
2022-11-21T12:05:22.388Z,13.52
2022-11-21T12:10:32.432Z,13.45
2022-11-21T12:15:51.362Z,14.82
2022-11-21T12:21:02.401Z,12.57
2022-11-21T12:26:29.983Z,13.38
2022-11-21T12:31:45.472Z,13.80
2022-11-21T12:36:56.743Z,12.93
2022-11-21T12:42:28.751Z,14.25
2022-11-21T12:48:11.795Z,13.65
2022-11-21T12:53:44.850Z,14.32
2022-11-21T12:58:56.929Z,14.27
2022-11-21T13:04:05.246Z,15.43
2022-11-21T13:09:14.211Z,15.75
2022-11-21T13:14:26.352Z,15.35
2022-11-21T13:19:38.999Z,16.70
2022-11-21T13:24:59.956Z,16.08
2022-11-21T13:30:21.941Z,15.27
2022-11-21T13:36:05.502Z,16.65
2022-11-21T13:41:30.441Z,15.73
2022-11-21T13:47:00.189Z,17.15
2022-11-21T13:52:13.576Z,17.70
2022-11-21T13:57:42.035Z,16.77
2022-11-21T14:03:20.333Z,18.45
2022-11-21T14:08:26.920Z,19.17
2022-11-21T14:13:39.322Z,20.27
2022-11-21T14:18:51.881Z,20.50
2022-11-21T14:24:06.118Z,21.52
2022-11-21T14:30:02.095Z,21.02
2022-11-21T14:48:33.804Z,18.45
2022-11-21T14:53:44.774Z,18.25
2022-11-21T14:58:49.331Z,18.23
2022-11-21T15:03:57.229Z,17.97
2022-11-21T15:10:24.795Z,18.33
2022-11-21T15:14:32.047Z,19.98
2022-11-21T15:19:35.890Z,16.83
2022-11-21T15:24:43.234Z,18.38
2022-11-21T15:29:47.095Z,17.65
2022-11-21T15:34:51.183Z,16.85
2022-11-21T15:39:56.560Z,18.53
2022-11-21T15:50:08.932Z,18.05
2022-11-21T15:55:20.954Z,19.63
2022-11-21T16:00:25.417Z,19.77
2022-11-21T16:05:29.657Z,15.90
2022-11-21T16:10:36.113Z,34.38
2022-11-21T16:15:41.264Z,26.00
2022-11-21T16:25:55.120Z,23.10
2022-11-21T16:30:59.321Z,22.40
2022-11-21T16:36:03.117Z,22.40
2022-11-21T16:41:08.542Z,23.48
2022-11-21T16:46:13.183Z,24.63
2022-11-21T16:51:19.138Z,28.50
2022-11-21T16:56:24.764Z,28.00
2022-11-21T17:01:29.246Z,25.90
2022-11-21T17:06:35.771Z,26.90
2022-11-21T17:11:41.528Z,24.53
2022-11-21T17:16:45.827Z,25.98
2022-11-21T17:21:53.838Z,25.58
2022-11-21T17:27:01.179Z,26.70
2022-11-21T17:32:04.955Z,26.98
2022-11-21T17:37:09.187Z,26.33
2022-11-21T17:42:14.497Z,26.87
2022-11-21T17:47:18.358Z,26.63
2022-11-21T17:52:22.264Z,26.25
2022-11-21T17:57:27.915Z,27.63
2022-11-21T18:02:31.958Z,28.48
2022-11-21T18:07:37.846Z,27.75
2022-11-21T18:12:43.910Z,26.33
2022-11-21T18:17:47.695Z,29.42
2022-11-21T18:22:52.072Z,30.52
2022-11-21T18:27:59.741Z,31.17
2022-11-21T18:33:04.645Z,31.33
2022-11-21T18:38:08.526Z,29.42
2022-11-21T18:43:13.747Z,29.55
2022-11-21T18:48:19.860Z,30.35
2022-11-21T18:53:23.643Z,31.27
2022-11-21T18:58:29.164Z,30.95
2022-11-21T19:03:37.801Z,32.85
2022-11-21T19:08:41.843Z,34.10
2022-11-21T19:13:48.904Z,31.97
2022-11-21T19:24:19.801Z,31.80
2022-11-21T19:29:24.964Z,30.65
2022-11-21T19:39:34.978Z,28.90
2022-11-21T19:44:40.483Z,30.20
2022-11-21T19:49:44.380Z,30.63
2022-11-21T19:54:49.514Z,31.65
2022-11-21T19:59:55.800Z,30.33
2022-11-21T20:04:59.578Z,29.05
2022-11-21T20:10:03.613Z,29.35
2022-11-21T20:15:13.308Z,29.05
2022-11-21T20:20:17.519Z,29.50
2022-11-21T20:25:23.479Z,29.10
2022-11-21T20:30:29.673Z,30.02
2022-11-21T20:35:33.653Z,28.20
2022-11-21T20:40:37.727Z,28.23
2022-11-21T20:46:17.024Z,19.85
2022-11-21T20:56:34.617Z,26.75
2022-11-21T21:01:40.266Z,25.45
2022-11-21T21:06:44.070Z,25.88
2022-11-21T21:11:52.927Z,25.70
2022-11-21T21:16:59.620Z,26.25
2022-11-21T21:22:04.970Z,24.63
2022-11-21T21:27:11.686Z,25.02
